Latest Weather Observations for Nullarbor

IDS60801

Issued at 4:05 pm CDT Thursday 23 October 2014 (issued every 30 minutes, with the page automatically refreshed every 10 minutes)

About weather observations | Map of weather stations | Latest weather observations for SA | Other Formats
Station Details ID: 018106 Name: NULLARBOR Lat: -31.45 Lon: 130.90 Height: 64.0 m
Data from the previous 72 hours. | See also: Recent months at Nullarbor
Date/Time
CDT
Temp
°C
App
Temp
°C
Dew
Point
Rel
Hum
%
Delta-T
°C
Wind Press
QNH
hPa
Press
MSL
hPa
Rain
since 9 am
mm
Dir
 
Spd
km/h
Gust
km/h
Spd
kts
Gust
kts
23/04:00pm 21.9 18.3 13.0 57 5.1 ESE 24 32 13 17 1013.8 1013.7 0.0
23/03:30pm 21.7 18.0 12.8 57 5.1 SE 24 30 13 16 1013.9 1013.8 0.0
23/03:00pm 21.7 16.4 12.5 56 5.2 S 32 39 17 21 1015.0 1014.9 0.0
23/02:53pm 21.8 16.3 12.4 55 5.3 S 33 39 18 21 1015.2 1015.1 0.0
23/02:30pm 26.8 22.7 11.3 38 8.8 SSE 24 30 13 16 1015.2 1015.1 0.0
23/02:00pm 29.6 26.6 7.5 25 12.0 NNE 13 20 7 11 1014.9 1014.8 0.0
23/01:30pm 28.2 24.9 8.0 28 11.0 N 15 24 8 13 1015.4 1015.3 0.0
23/01:00pm 27.6 25.6 8.5 30 10.4 NNE 9 20 5 11 1016.3 1016.2 0.0
23/12:30pm 27.4 24.9 9.7 33 9.8 NNW 13 24 7 13 1017.0 1016.9 0.0
23/12:00pm 24.8 20.8 9.1 37 8.5 NNE 20 28 11 15 1016.4 1016.3 0.0
23/11:30am 23.1 20.6 10.9 46 6.8 N 15 22 8 12 1017.1 1017.0 0.0
23/11:00am 21.0 19.2 10.8 52 5.6 NNE 11 17 6 9 1017.7 1017.6 0.0
23/10:30am 20.0 17.9 11.2 57 4.8 N 13 22 7 12 1017.8 1017.7 0.0
23/10:00am 18.0 15.1 10.9 63 3.8 NNE 17 20 9 11 1017.5 1017.4 0.0
23/09:30am 16.3 13.5 11.2 72 2.7 ENE 17 22 9 12 1017.2 1017.1 0.0
23/09:00am 14.9 11.8 11.5 80 1.8 ENE 19 22 10 12 1017.5 1017.4 0.0
23/08:54am 14.8 12.1 11.6 81 1.7 ENE 17 20 9 11 1017.5 1017.4 0.0
23/08:30am 13.8 11.0 11.3 85 1.3 ENE 17 20 9 11 1017.5 1017.4 0.0
23/08:00am 13.3 10.9 11.5 89 1.0 E 15 20 8 11 1017.6 1017.5 0.0
23/07:30am 13.4 10.7 11.8 90 0.9 E 17 24 9 13 1017.7 1017.6 0.0
23/07:00am 14.0 11.5 12.2 89 1.0 E 17 22 9 12 1017.6 1017.5 0.0
23/06:30am 14.5 11.5 12.5 88 1.1 E 20 26 11 14 1017.6 1017.5 0.0
23/06:00am 14.8 12.5 13.0 89 1.0 ESE 17 24 9 13 1017.7 1017.6 0.0
23/05:30am 14.7 11.1 12.9 89 1.0 ESE 24 32 13 17 1017.7 1017.6 0.0
23/05:00am 14.7 11.1 12.9 89 1.0 SE 24 30 13 16 1017.5 1017.4 0.0
23/04:30am 14.8 11.2 13.0 89 1.0 ESE 24 30 13 16 1017.8 1017.7 0.0
23/04:00am 15.0 12.1 13.0 88 1.1 SE 20 30 11 16 1018.4 1018.3 0.0
23/03:30am 15.0 11.4 13.0 88 1.1 SE 24 30 13 16 1018.5 1018.4 0.0
23/03:00am 15.0 12.1 12.9 87 1.2 ESE 20 30 11 16 1019.2 1019.1 0.0
23/02:30am 15.2 11.9 12.9 86 1.3 ESE 22 32 12 17 1019.2 1019.1 0.0
23/02:00am 15.4 12.2 13.1 86 1.3 SE 22 30 12 16 1019.6 1019.5 0.0
23/01:30am 15.5 12.2 12.8 84 1.5 SE 22 32 12 17 1020.2 1020.1 0.0
23/01:00am 15.5 12.2 12.8 84 1.5 ESE 22 32 12 17 1020.7 1020.6 0.0
23/12:30am 15.6 11.9 12.7 83 1.6 ESE 24 32 13 17 1021.1 1021.0 0.0
23/12:00am 15.5 11.8 12.6 83 1.6 SE 24 33 13 18 1021.3 1021.2 0.0
 
Date/Time
CDT
Temp
°C
App
Temp
°C
Dew
Point
Rel
Hum
%
Delta-T
°C
Wind Press
QNH
hPa
Press
MSL
hPa
Rain
since 9 am
mm
Dir
 
Spd
km/h
Gust
km/h
Spd
kts
Gust
kts
22/11:30pm 15.5 11.3 12.4 82 1.7 SE 26 33 14 18 1021.5 1021.4 0.0
22/11:00pm 15.7 11.3 12.8 83 1.6 SE 28 35 15 19 1021.7 1021.6 0.0
22/10:30pm 15.8 12.1 12.7 82 1.7 SE 24 35 13 19 1021.8 1021.7 0.0
22/10:00pm 15.8 11.3 12.5 81 1.8 SE 28 35 15 19 1021.8 1021.7 0.0
22/09:30pm 15.9 12.1 12.5 80 1.9 SSE 24 33 13 18 1021.8 1021.7 0.0
22/09:00pm 16.0 12.3 12.7 81 1.8 SE 24 32 13 17 1021.6 1021.5 0.0
22/08:30pm 16.0 11.9 12.6 80 1.9 SE 26 35 14 19 1021.7 1021.6 0.0
22/08:00pm 16.2 10.9 12.6 79 2.0 SSE 32 39 17 21 1021.2 1021.1 0.0
22/07:30pm 16.5 11.6 12.7 78 2.1 SSE 30 41 16 22 1021.0 1020.9 0.0
22/07:00pm 17.1 12.6 12.6 75 2.5 S 28 37 15 20 1021.2 1021.1 0.0
22/06:42pm 17.8 12.7 13.1 74 2.6 SSE 32 39 17 21 1021.1 1021.0 0.0
22/06:30pm 18.0 12.8 12.9 72 2.9 SSE 32 43 17 23 1021.0 1020.9 0.0
22/06:00pm 18.3 13.5 13.0 71 3.0 SSE 30 37 16 20 1021.1 1021.0 0.0
22/05:30pm 18.8 14.4 13.0 69 3.3 S 28 33 15 18 1021.1 1021.0 0.0
22/05:00pm 19.3 14.9 12.8 66 3.7 S 28 37 15 20 1021.3 1021.2 0.0
22/04:30pm 19.4 15.2 12.4 64 3.9 S 26 35 14 19 1021.6 1021.5 0.0
22/04:00pm 20.0 15.9 12.7 63 4.1 S 26 39 14 21 1021.9 1021.8 0.0
22/03:30pm 20.1 16.0 12.8 63 4.1 S 26 35 14 19 1021.9 1021.8 0.0
22/03:00pm 20.9 17.7 13.1 61 4.4 S 22 30 12 16 1022.4 1022.3 0.0
22/02:30pm 20.1 16.7 12.6 62 4.2 S 22 33 12 18 1022.5 1022.4 0.0
22/02:00pm 20.6 17.8 13.3 63 4.2 SSE 20 30 11 16 1022.8 1022.7 0.0
22/01:30pm 19.8 16.8 12.6 63 4.0 SSE 20 30 11 16 1022.9 1022.8 0.0
22/01:00pm 19.9 17.1 13.1 65 3.9 SSE 20 28 11 15 1023.3 1023.2 0.0
22/12:30pm 19.7 17.0 12.9 65 3.8 SSE 19 30 10 16 1023.5 1023.4 0.0
22/12:25pm 20.0 17.5 13.5 66 3.7 S 19 30 10 16 1023.5 1023.4 0.0
22/12:00pm 19.3 16.6 13.5 69 3.3 SSE 20 30 11 16 1023.7 1023.6 0.0
22/11:30am 17.8 15.3 13.5 76 2.4 SSE 19 24 10 13 1024.0 1023.9 0.0
22/11:00am 17.4 15.1 13.1 76 2.4 SSE 17 24 9 13 1024.0 1023.9 0.0
22/10:30am 16.9 14.8 13.6 81 1.9 SSE 17 26 9 14 1024.0 1023.9 0.0
22/10:00am 16.4 14.2 13.3 82 1.7 SE 17 22 9 12 1024.2 1024.1 0.0
22/09:30am 16.1 13.9 13.4 84 1.5 SSE 17 22 9 12 1023.9 1023.8 0.0
22/09:00am 15.9 14.1 13.4 85 1.4 SE 15 24 8 13 1023.5 1023.4 0.0
22/08:30am 15.8 14.2 13.8 88 1.1 SE 15 20 8 11 1023.2 1023.0 0.0
22/08:00am 15.5 13.4 13.5 88 1.1 SSE 17 19 9 10 1022.8 1022.7 0.0
22/07:30am 15.4 13.3 13.6 89 1.0 SSE 17 20 9 11 1022.4 1022.3 0.0
22/07:00am 15.2 12.7 13.6 90 0.9 SSE 19 28 10 15 1021.9 1021.8 0.0
22/06:30am 15.4 13.0 13.8 90 0.9 SSE 19 24 10 13 1021.5 1021.4 0.0
22/06:00am 15.5 13.1 13.9 90 0.9 SSE 19 26 10 14 1021.4 1021.3 0.0
22/05:30am 15.6 12.7 14.0 90 0.9 SSE 22 28 12 15 1021.1 1021.0 0.0
22/05:00am 15.8 13.4 14.3 91 0.9 SSE 20 26 11 14 1021.2 1021.1 0.0
22/04:30am 15.8 14.7 15.2 96 0.3 SSE 15 22 8 12 1021.2 1021.1 0.0
22/04:00am 14.4 14.0 14.1 98 0.2 S 9 13 5 7 1021.2 1021.1 0.0
22/03:32am 12.4 12.9 11.5 94 0.5 CALM 0 0 0 0 1021.2 1021.1 0.0
22/03:30am 12.4 12.9 11.5 94 0.5 CALM 0 0 0 0 1021.3 1021.2 0.0
22/03:00am 13.7 13.4 12.8 94 0.5 ESE 6 6 3 3 1021.2 1021.1 0.0
22/02:30am 14.2 13.4 12.9 92 0.7 SE 9 11 5 6 1021.1 1021.0 0.0
22/02:00am 14.9 13.5 13.4 91 0.8 SSE 13 17 7 9 1021.2 1021.1 0.0
22/01:30am 15.5 13.8 13.7 89 1.0 SSE 15 20 8 11 1021.4 1021.3 0.0
22/01:00am 15.9 14.2 13.7 87 1.2 SSE 15 19 8 10 1021.7 1021.6 0.0
22/12:30am 16.1 14.1 13.8 86 1.3 SSE 17 20 9 11 1021.9 1021.8 0.0
22/12:00am 16.4 14.0 13.7 84 1.5 S 19 24 10 13 1022.0 1021.9 0.0
 
Date/Time
CDT
Temp
°C
App
Temp
°C
Dew
Point
Rel
Hum
%
Delta-T
°C
Wind Press
QNH
hPa
Press
MSL
hPa
Rain
since 9 am
mm
Dir
 
Spd
km/h
Gust
km/h
Spd
kts
Gust
kts
21/11:30pm 16.6 14.5 13.5 82 1.7 S 17 22 9 12 1022.2 1022.1 0.0
21/11:00pm 16.8 14.1 13.5 81 1.9 S 20 24 11 13 1022.4 1022.3 0.0
21/10:30pm 16.9 14.9 13.8 82 1.8 S 17 22 9 12 1022.4 1022.3 0.0
21/10:00pm 17.2 14.8 14.3 83 1.7 S 20 33 11 18 1022.3 1022.2 0.0
21/09:30pm 17.5 15.4 14.6 83 1.7 S 19 24 10 13 1022.0 1021.9 0.0
21/09:00pm 18.0 14.8 14.3 79 2.1 S 24 30 13 16 1021.5 1021.4 0.0
21/08:30pm 18.6 15.2 13.7 73 2.8 SSW 24 32 13 17 1021.1 1021.0 0.0
21/08:00pm 19.4 15.1 13.1 67 3.6 SSW 28 41 15 22 1020.7 1020.6 0.0
21/07:30pm 21.3 16.7 12.2 56 5.1 SSW 28 35 15 19 1020.1 1020.0 0.0
21/07:00pm 22.5 17.9 12.2 52 5.8 SSW 28 37 15 20 1019.8 1019.7 0.0
21/06:30pm 23.0 17.5 12.3 51 6.1 SSW 33 39 18 21 1019.4 1019.3 0.0
21/06:00pm 24.1 18.7 12.1 47 6.8 SSW 32 39 17 21 1019.2 1019.1 0.0
21/05:30pm 25.2 19.8 12.1 44 7.5 SSW 32 41 17 22 1018.7 1018.6 0.0
21/05:00pm 26.0 20.6 12.1 42 8.0 SSW 32 41 17 22 1018.4 1018.3 0.0
21/04:30pm 26.8 21.1 11.3 38 8.8 SSW 32 37 17 20 1018.2 1018.1 0.0
21/04:00pm 26.7 21.1 11.6 39 8.6 SSW 32 39 17 21 1018.0 1017.9 0.0
21/03:30pm 28.2 22.2 10.9 34 9.8 SSW 33 43 18 23 1017.8 1017.7 0.0
21/03:00pm 29.5 23.2 9.1 28 11.3 SSW 32 44 17 24 1017.7 1017.6 0.0
21/02:30pm 29.0 22.8 9.2 29 11.0 S 32 39 17 21 1017.6 1017.5 0.0
21/02:00pm 29.9 23.7 9.4 28 11.5 SSW 32 41 17 22 1017.7 1017.6 0.0
21/01:30pm 29.4 23.2 9.5 29 11.1 SSW 32 41 17 22 1017.8 1017.7 0.0
21/01:00pm 28.6 21.4 9.3 30 10.7 SSW 37 44 20 24 1017.9 1017.8 0.0
21/12:30pm 27.6 21.8 10.8 35 9.5 SSW 32 39 17 21 1017.9 1017.8 0.0
21/12:00pm 26.4 20.7 11.3 39 8.6 SSW 32 37 17 20 1018.0 1017.9 0.0
21/11:30am 26.0 21.8 12.5 43 7.8 SSW 26 32 14 17 1017.8 1017.7 0.0
21/11:00am 24.7 20.9 13.6 50 6.5 SW 26 37 14 20 1017.6 1017.5 0.0
21/10:30am 24.1 20.3 12.4 48 6.7 SW 24 30 13 16 1017.4 1017.3 0.0
21/10:00am 22.4 19.8 13.7 58 5.1 SW 20 26 11 14 1017.3 1017.2 0.0
21/09:30am 21.8 18.7 14.4 63 4.3 SSW 24 32 13 17 1017.4 1017.3 0.0
21/09:00am 23.3 18.9 10.4 44 7.1 SW 24 28 13 15 1016.5 1016.4 0.6
21/08:30am 22.5 19.9 9.3 43 7.1 SSW 13 19 7 10 1016.2 1016.1 0.6
21/08:00am 20.2 17.9 10.3 53 5.4 S 13 15 7 8 1016.2 1016.1 0.6
21/07:30am 18.2 15.9 10.3 60 4.2 S 13 17 7 9 1016.0 1015.9 0.6
21/07:00am 18.5 15.5 10.8 61 4.2 SW 17 22 9 12 1015.3 1015.2 0.6
21/06:30am 18.9 16.8 11.2 61 4.2 SW 13 15 7 8 1014.8 1014.7 0.6
21/06:00am 19.9 16.2 10.0 53 5.3 W 20 26 11 14 1015.2 1015.1 0.6
21/05:41am 21.5 16.8 9.1 45 6.6 W 24 28 13 15 1015.0 1014.9 0.6
21/05:30am 22.4 20.8 10.2 46 6.7 NW 9 17 5 9 1013.6 1013.5 0.6
21/05:25am 22.4 21.1 11.2 49 6.2 NW 9 20 5 11 1013.7 1013.6 0.6
21/05:00am 21.5 18.0 5.4 35 8.0 ESE 13 20 7 11 1012.8 1012.7 0.0
21/04:30am 22.0 18.8 3.2 29 9.0 ESE 9 13 5 7 1014.3 1014.2 0.0
21/04:00am 22.2 15.9 3.8 30 8.9 W 26 33 14 18 1015.1 1015.0 0.0
21/03:55am 21.7 15.4 3.9 31 8.6 W 26 35 14 19 1014.9 1014.8 0.0
21/03:30am 20.6 17.2 3.8 33 8.1 SE 11 15 6 8 1012.8 1012.7 0.0
21/03:00am 20.8 17.3 3.5 32 8.3 SW 11 19 6 10 1014.2 1014.1 0.0
21/02:30am 21.1 16.6 2.4 29 8.8 WNW 15 20 8 11 1014.9 1014.8 0.0
21/02:00am 21.3 16.7 1.6 27 9.1 ESE 15 19 8 10 1014.2 1014.1 0.0
21/01:30am 21.1 18.4 2.4 29 8.8 SW 6 13 3 7 1015.0 1014.9 0.0
21/01:00am 22.1 18.0 2.2 27 9.4 S 13 20 7 11 1015.5 1015.4 0.0
21/12:30am 22.8 17.4 2.3 26 9.7 E 20 26 11 14 1015.0 1014.9 0.0
21/12:00am 22.1 15.9 4.2 31 8.7 ESE 26 35 14 19 1014.7 1014.6 0.0
 
Date/Time
CDT
Temp
°C
App
Temp
°C
Dew
Point
Rel
Hum
%
Delta-T
°C
Wind Press
QNH
hPa
Press
MSL
hPa
Rain
since 9 am
mm
Dir
 
Spd
km/h
Gust
km/h
Spd
kts
Gust
kts
20/11:30pm 20.7 15.9 9.0 47 6.2 ESE 24 32 13 17 1015.4 1015.3 0.0
20/11:00pm 19.6 17.2 12.8 65 3.8 ESE 17 22 9 12 1015.8 1015.7 0.0
20/10:30pm 19.8 16.9 13.0 65 3.9 SE 20 28 11 15 1015.3 1015.2 0.0
20/10:00pm 22.5 19.1 7.5 38 7.8 SE 15 20 8 11 1014.6 1014.5 0.0
20/09:30pm 22.3 17.8 8.4 41 7.4 SE 22 32 12 17 1014.1 1014.0 0.0
20/09:00pm 21.7 18.0 10.2 48 6.3 SE 20 26 11 14 1014.6 1014.5 0.0
20/08:30pm 21.8 18.9 9.7 46 6.5 SSW 15 20 8 11 1015.5 1015.4 0.0
20/08:00pm 22.1 18.4 9.6 45 6.8 S 19 22 10 12 1015.3 1015.2 0.0
20/07:30pm 23.5 19.4 8.0 37 8.2 SW 19 22 10 12 1014.8 1014.7 0.0
20/07:00pm 24.1 20.4 8.1 36 8.5 S 17 20 9 11 1014.5 1014.4 0.0
20/06:30pm 25.2 20.5 5.9 29 9.9 SSE 20 24 11 13 1013.4 1013.3 0.0
20/06:00pm 26.5 21.7 4.9 25 11.0 S 19 22 10 12 1013.8 1013.7 0.0
20/05:30pm 26.7 21.7 4.5 24 11.2 S 20 24 11 13 1013.6 1013.5 0.0
20/05:00pm 28.6 23.3 4.8 22 12.3 S 22 30 12 16 1013.7 1013.6 0.0
20/04:30pm 29.9 24.6 3.0 18 13.5 SW 20 26 11 14 1014.8 1014.7 0.0

Other Formats:

Comma delimited format used in spreadsheet applications
http://www.bom.gov.au/fwo/IDS60801/IDS60801.94651.axf

JavaScript Object Notation format (JSON) in row-major order
http://www.bom.gov.au/fwo/IDS60801/IDS60801.94651.json